createdAt,value
2023-04-14T00:02:28.692Z,73.48
2023-04-14T00:04:58.643Z,73.48
2023-04-14T00:07:28.196Z,73.10
2023-04-14T00:09:58.073Z,73.15
2023-04-14T00:12:27.831Z,73.37
2023-04-14T00:14:58.013Z,73.67
2023-04-14T00:17:27.812Z,72.76
2023-04-14T00:19:57.738Z,73.50
2023-04-14T00:22:27.926Z,73.87
2023-04-14T00:24:58.037Z,73.87
2023-04-14T00:27:30.952Z,74.10
2023-04-14T00:30:00.909Z,73.58
2023-04-14T00:32:30.767Z,73.73
2023-04-14T00:35:03.600Z,74.11
2023-04-14T00:37:33.908Z,73.89
2023-04-14T00:40:03.924Z,73.92
2023-04-14T00:42:33.759Z,73.88
2023-04-14T00:45:03.669Z,74.16
2023-04-14T00:47:34.106Z,74.03
2023-04-14T00:50:04.437Z,73.40
2023-04-14T00:52:34.343Z,73.50
2023-04-14T00:55:07.748Z,73.29
2023-04-14T00:57:37.730Z,73.12
2023-04-14T01:00:08.744Z,73.34
2023-04-14T01:02:38.852Z,72.96
2023-04-14T01:05:09.240Z,72.62
2023-04-14T01:07:39.689Z,72.81
2023-04-14T01:10:12.880Z,73.12
2023-04-14T01:12:45.626Z,73.54
2023-04-14T01:15:40.353Z,72.94
2023-04-14T01:18:14.482Z,73.73
2023-04-14T01:20:47.372Z,73.46
2023-04-14T01:23:28.289Z,73.47
2023-04-14T01:26:20.710Z,73.77
2023-04-14T01:29:05.349Z,73.75
2023-04-14T01:31:41.041Z,73.14
2023-04-14T01:34:16.990Z,73.88
2023-04-14T01:36:52.572Z,74.19
2023-04-14T01:39:25.854Z,74.47
2023-04-14T01:41:59.369Z,74.36
2023-04-14T01:44:31.726Z,74.14
2023-04-14T01:47:07.845Z,74.11
2023-04-14T01:49:40.976Z,73.62
2023-04-14T01:52:14.788Z,74.06
2023-04-14T01:54:46.948Z,73.66
2023-04-14T01:57:20.212Z,73.50
2023-04-14T01:59:52.996Z,74.73
2023-04-14T02:02:24.916Z,74.80
2023-04-14T02:04:57.527Z,74.46
2023-04-14T02:07:29.184Z,74.57
2023-04-14T02:10:01.872Z,74.44
2023-04-14T02:12:32.425Z,74.82
2023-04-14T02:15:02.755Z,74.40
2023-04-14T02:17:33.562Z,74.87
2023-04-14T02:20:03.830Z,74.56
2023-04-14T02:22:34.603Z,74.91
2023-04-14T02:25:05.076Z,74.78
2023-04-14T02:27:40.941Z,75.34
2023-04-14T02:30:15.099Z,75.18
2023-04-14T02:32:49.179Z,75.09
2023-04-14T02:35:22.179Z,75.30
2023-04-14T02:37:55.292Z,75.27
2023-04-14T02:40:34.056Z,75.60
2023-04-14T02:43:09.814Z,74.64
2023-04-14T02:45:42.406Z,74.50
2023-04-14T02:48:15.575Z,74.92
2023-04-14T02:50:48.732Z,74.77
2023-04-14T02:53:23.252Z,75.33
2023-04-14T02:55:54.862Z,75.41
2023-04-14T02:58:24.956Z,75.85
2023-04-14T03:00:55.534Z,76.23
2023-04-14T03:03:27.148Z,76.36
2023-04-14T03:05:57.395Z,76.64
2023-04-14T03:08:28.286Z,77.27
2023-04-14T03:11:01.429Z,77.27
2023-04-14T03:13:34.669Z,78.37
2023-04-14T03:16:07.544Z,78.43
2023-04-14T03:18:38.583Z,78.68
2023-04-14T03:21:08.655Z,78.55
2023-04-14T03:23:39.389Z,78.55
2023-04-14T03:26:14.195Z,78.91
2023-04-14T03:28:46.162Z,79.01
2023-04-14T03:31:19.647Z,78.88
2023-04-14T03:33:55.954Z,78.29
2023-04-14T03:36:28.184Z,78.29
2023-04-14T03:39:01.711Z,78.73
2023-04-14T03:41:37.687Z,78.59
2023-04-14T03:44:13.890Z,78.38
2023-04-14T03:46:44.964Z,78.44
2023-04-14T03:49:18.108Z,78.70
2023-04-14T03:51:53.486Z,78.71
2023-04-14T03:54:27.351Z,78.69
2023-04-14T03:56:58.916Z,78.55
2023-04-14T03:59:30.653Z,78.91
2023-04-14T04:02:02.895Z,78.79
2023-04-14T04:04:34.840Z,78.76
2023-04-14T04:07:05.327Z,78.52
2023-04-14T04:09:37.996Z,78.42
2023-04-14T04:12:10.922Z,78.17
2023-04-14T04:14:41.475Z,78.28
2023-04-14T04:17:15.595Z,78.24
2023-04-14T04:19:47.495Z,78.17
2023-04-14T04:22:20.487Z,78.17
2023-04-14T04:24:52.382Z,78.10
2023-04-14T04:27:28.066Z,78.15
2023-04-14T04:29:56.888Z,78.10
2023-04-14T04:32:27.095Z,78.49
2023-04-14T04:34:58.453Z,77.87
2023-04-14T04:37:30.284Z,77.90
2023-04-14T04:40:00.737Z,78.15
2023-04-14T04:42:30.299Z,77.86
2023-04-14T04:45:00.622Z,78.67
2023-04-14T04:47:30.561Z,78.71
2023-04-14T04:50:00.177Z,78.22
2023-04-14T04:52:29.894Z,78.14
2023-04-14T04:54:59.686Z,78.45
2023-04-14T04:57:29.826Z,78.17
2023-04-14T04:59:59.650Z,77.85
2023-04-14T05:02:29.413Z,77.94
2023-04-14T05:04:59.398Z,77.75
2023-04-14T05:07:29.224Z,77.93
2023-04-14T05:09:59.067Z,77.91
2023-04-14T05:12:28.677Z,78.15
2023-04-14T05:14:58.834Z,78.17
2023-04-14T05:17:28.540Z,78.19
2023-04-14T05:19:58.461Z,77.98
2023-04-14T05:22:28.490Z,78.75
2023-04-14T05:24:58.360Z,78.68
2023-04-14T05:27:27.894Z,78.58
2023-04-14T05:29:57.791Z,78.83
2023-04-14T05:32:29.139Z,78.93
2023-04-14T05:34:59.612Z,78.97
2023-04-14T05:37:30.114Z,78.75
2023-04-14T05:40:00.492Z,79.47
2023-04-14T05:42:30.734Z,79.55
2023-04-14T05:45:00.560Z,79.23
2023-04-14T05:47:30.546Z,79.18
2023-04-14T05:50:01.049Z,78.37
2023-04-14T05:52:31.137Z,78.37
2023-04-14T05:55:01.378Z,78.80
2023-04-14T05:57:31.577Z,79.11
2023-04-14T06:00:01.542Z,79.07
2023-04-14T06:02:33.540Z,79.34
2023-04-14T06:05:05.337Z,79.44
2023-04-14T06:07:35.642Z,79.92
2023-04-14T06:10:08.070Z,79.70
2023-04-14T06:12:38.157Z,79.97
2023-04-14T06:15:08.749Z,80.25
2023-04-14T06:17:39.882Z,79.91
2023-04-14T06:20:11.434Z,79.45
2023-04-14T06:22:42.280Z,78.82
2023-04-14T06:25:12.325Z,79.42
2023-04-14T06:27:42.238Z,78.90
2023-04-14T06:30:12.055Z,78.95
2023-04-14T06:32:41.996Z,78.04
2023-04-14T06:35:16.572Z,78.04
2023-04-14T06:37:43.200Z,77.99
2023-04-14T06:40:14.873Z,77.53
2023-04-14T06:42:44.531Z,76.86
2023-04-14T06:45:14.231Z,76.87
2023-04-14T06:47:44.407Z,76.45
2023-04-14T06:50:15.453Z,76.10
2023-04-14T06:52:45.578Z,75.90
2023-04-14T06:55:15.622Z,75.20
2023-04-14T06:57:45.564Z,73.68
2023-04-14T07:00:16.696Z,73.92
2023-04-14T07:02:46.955Z,72.99
2023-04-14T07:05:18.236Z,72.48
2023-04-14T07:07:48.159Z,73.50
2023-04-14T07:10:18.717Z,71.11
2023-04-14T07:12:48.608Z,70.51
2023-04-14T07:15:18.813Z,71.29
2023-04-14T07:17:48.742Z,71.80
2023-04-14T07:20:20.157Z,70.08
2023-04-14T07:22:49.967Z,68.92
2023-04-14T07:25:20.393Z,70.17
2023-04-14T07:28:02.088Z,67.94
2023-04-14T07:30:21.803Z,67.33
2023-04-14T07:32:52.343Z,66.93
2023-04-14T07:35:22.260Z,66.93
2023-04-14T07:37:52.786Z,67.31
2023-04-14T07:40:22.524Z,66.93
2023-04-14T07:42:52.646Z,66.60
2023-04-14T07:45:22.680Z,66.46
2023-04-14T07:47:52.724Z,65.32
2023-04-14T07:50:23.029Z,65.38
2023-04-14T07:52:53.158Z,64.49
2023-04-14T07:55:23.834Z,63.45
2023-04-14T07:57:54.765Z,63.10
2023-04-14T08:00:24.559Z,62.51
2023-04-14T08:02:54.733Z,62.98
2023-04-14T08:05:24.460Z,62.76
2023-04-14T08:07:54.295Z,61.50
2023-04-14T08:10:24.136Z,60.72
2023-04-14T08:12:54.030Z,59.51
2023-04-14T08:15:24.061Z,56.81
2023-04-14T08:17:54.088Z,58.21
2023-04-14T08:20:24.091Z,59.04
2023-04-14T08:22:54.215Z,58.61
2023-04-14T08:25:24.283Z,55.27
2023-04-14T08:27:54.126Z,54.68
2023-04-14T08:30:24.338Z,56.14
2023-04-14T08:32:59.061Z,54.39
2023-04-14T08:35:37.870Z,54.90
2023-04-14T08:37:59.737Z,55.25
2023-04-14T08:40:35.210Z,52.31
2023-04-14T08:43:05.910Z,52.37
2023-04-14T08:45:36.586Z,51.90
2023-04-14T08:48:07.323Z,51.95
2023-04-14T08:50:49.049Z,52.63
2023-04-14T08:53:21.097Z,52.12
2023-04-14T08:55:52.610Z,51.73
2023-04-14T08:58:22.827Z,50.81
2023-04-14T09:00:53.894Z,50.83
2023-04-14T09:03:24.231Z,50.25
2023-04-14T09:05:54.315Z,51.16
2023-04-14T09:08:24.517Z,50.85
2023-04-14T09:10:55.123Z,50.10
2023-04-14T09:13:28.358Z,50.91
2023-04-14T09:16:00.088Z,50.77
2023-04-14T09:18:31.442Z,49.20
2023-04-14T09:21:30.080Z,49.10
2023-04-14T09:23:35.069Z,49.38
2023-04-14T09:26:06.636Z,47.73
2023-04-14T09:28:37.628Z,48.29
2023-04-14T09:31:08.554Z,47.95
2023-04-14T09:33:47.432Z,46.23
2023-04-14T09:36:22.477Z,46.50
2023-04-14T09:38:53.409Z,47.21
2023-04-14T09:41:26.273Z,47.21
2023-04-14T09:43:56.132Z,46.15
2023-04-14T09:46:26.246Z,45.69
2023-04-14T09:48:57.580Z,45.62
2023-04-14T09:51:32.637Z,44.97
2023-04-14T09:54:06.322Z,43.56
2023-04-14T09:56:36.678Z,44.56
2023-04-14T09:59:07.276Z,45.14
2023-04-14T10:01:37.294Z,44.99
2023-04-14T10:04:08.579Z,40.95
2023-04-14T10:06:41.613Z,40.81
2023-04-14T10:09:14.454Z,42.38
2023-04-14T10:11:44.554Z,42.15
2023-04-14T10:14:15.671Z,43.01
2023-04-14T10:16:45.489Z,42.22
2023-04-14T10:19:15.606Z,40.83
2023-04-14T10:21:45.567Z,40.83
2023-04-14T10:24:17.160Z,41.70
2023-04-14T10:26:48.607Z,41.64
2023-04-14T10:29:19.343Z,39.69
2023-04-14T10:31:58.761Z,41.34
2023-04-14T10:34:30.809Z,40.35
2023-04-14T10:37:16.395Z,38.88
2023-04-14T10:39:49.243Z,39.48
2023-04-14T10:42:18.908Z,39.64
2023-04-14T10:45:08.756Z,39.41
2023-04-14T10:47:41.449Z,39.04
2023-04-14T10:50:21.087Z,39.04
2023-04-14T10:52:56.470Z,39.35
2023-04-14T10:55:28.111Z,39.76
2023-04-14T10:58:07.990Z,39.50
2023-04-14T11:00:41.733Z,39.50
2023-04-14T11:03:13.770Z,36.86
2023-04-14T11:05:46.114Z,37.11
2023-04-14T11:08:18.423Z,37.17
2023-04-14T11:10:51.452Z,36.90
2023-04-14T11:13:21.603Z,38.00
2023-04-14T11:16:05.595Z,38.00
2023-04-14T11:18:45.550Z,37.00
2023-04-14T11:21:17.549Z,35.69
2023-04-14T11:23:49.045Z,36.36
2023-04-14T11:26:18.995Z,35.97
2023-04-14T11:28:49.280Z,37.57
2023-04-14T11:31:21.696Z,37.57
2023-04-14T11:33:51.195Z,36.05
2023-04-14T11:36:21.036Z,36.05
2023-04-14T11:38:51.152Z,34.69
2023-04-14T11:41:22.283Z,34.54
2023-04-14T11:43:52.968Z,34.56
2023-04-14T11:46:23.036Z,34.56
2023-04-14T11:48:57.120Z,33.34
2023-04-14T11:51:34.441Z,33.87
2023-04-14T11:54:04.511Z,33.71
2023-04-14T11:56:34.533Z,33.74
2023-04-14T11:59:06.466Z,33.44
2023-04-14T12:01:36.458Z,34.12
2023-04-14T12:04:06.738Z,34.88
2023-04-14T12:06:39.074Z,34.30
2023-04-14T12:09:10.273Z,34.07
2023-04-14T12:11:40.212Z,34.07
2023-04-14T12:14:10.464Z,33.02
2023-04-14T12:16:40.704Z,32.36
2023-04-14T12:19:10.593Z,32.36
2023-04-14T12:21:43.280Z,31.60
2023-04-14T12:24:13.106Z,32.80
2023-04-14T12:26:44.518Z,32.19
2023-04-14T12:29:14.613Z,31.58
2023-04-14T12:31:46.092Z,31.46
2023-04-14T12:34:17.568Z,31.84
2023-04-14T12:36:53.518Z,32.46
2023-04-14T12:39:26.089Z,32.25
2023-04-14T12:41:59.287Z,32.40
2023-04-14T12:44:29.078Z,31.91
2023-04-14T12:46:58.957Z,33.25
2023-04-14T12:49:39.310Z,32.62
2023-04-14T12:52:09.169Z,32.59
2023-04-14T12:54:55.064Z,33.71
2023-04-14T12:57:25.006Z,33.22
2023-04-14T12:59:54.829Z,33.75
2023-04-14T13:02:24.873Z,33.05
2023-04-14T13:04:54.784Z,32.78
2023-04-14T13:07:24.961Z,31.45
2023-04-14T13:09:54.779Z,31.51
2023-04-14T13:12:24.681Z,30.80
2023-04-14T13:14:54.712Z,30.46
2023-04-14T13:17:25.457Z,31.08
2023-04-14T13:19:55.390Z,31.17
2023-04-14T13:22:25.579Z,31.79
2023-04-14T13:24:57.823Z,31.94
2023-04-14T13:27:27.928Z,32.27
2023-04-14T13:29:57.843Z,32.51
2023-04-14T13:32:27.641Z,31.69
2023-04-14T13:34:57.202Z,31.76
2023-04-14T13:37:27.179Z,31.37
2023-04-14T13:39:57.018Z,31.05
2023-04-14T13:42:26.856Z,30.50
2023-04-14T13:44:56.915Z,30.66
2023-04-14T13:47:28.282Z,32.01
2023-04-14T13:49:58.122Z,29.81
2023-04-14T13:52:27.929Z,29.64
2023-04-14T13:54:57.841Z,30.74
2023-04-14T13:57:27.413Z,30.55
2023-04-14T13:59:59.051Z,31.47
2023-04-14T14:02:32.962Z,31.47
2023-04-14T14:05:03.446Z,30.82
2023-04-14T14:07:33.139Z,30.30
2023-04-14T14:10:07.446Z,29.71
2023-04-14T14:12:37.734Z,30.43
2023-04-14T14:15:08.915Z,31.28
2023-04-14T14:17:38.920Z,31.83
2023-04-14T14:20:09.950Z,31.00
2023-04-14T14:22:40.322Z,30.84
2023-04-14T14:25:18.349Z,29.70
2023-04-14T14:27:42.439Z,29.45
2023-04-14T14:30:14.173Z,29.18
2023-04-14T14:32:44.420Z,29.99
2023-04-14T14:35:14.257Z,28.75
2023-04-14T14:37:45.849Z,29.14
2023-04-14T14:40:17.594Z,28.97
2023-04-14T14:42:47.399Z,28.35
2023-04-14T14:45:17.368Z,27.41
2023-04-14T14:47:49.126Z,29.24
2023-04-14T14:50:19.413Z,29.00
2023-04-14T14:52:49.169Z,29.69
2023-04-14T14:55:18.871Z,29.11
2023-04-14T14:57:48.714Z,29.47
2023-04-14T15:00:19.566Z,27.77
2023-04-14T15:02:49.737Z,27.81
2023-04-14T15:05:19.561Z,27.06
2023-04-14T15:07:49.661Z,28.65
2023-04-14T15:10:20.935Z,28.06
2023-04-14T15:12:50.836Z,28.90
2023-04-14T15:15:20.840Z,29.49
2023-04-14T15:17:51.141Z,30.39
2023-04-14T15:20:21.360Z,30.52
2023-04-14T15:22:51.459Z,31.46
2023-04-14T15:25:21.672Z,31.78
2023-04-14T15:27:52.906Z,30.91
2023-04-14T15:30:23.793Z,30.32
2023-04-14T15:32:53.693Z,28.60
2023-04-14T15:35:24.188Z,29.52
2023-04-14T15:37:54.021Z,30.08
2023-04-14T15:40:24.165Z,30.58
2023-04-14T15:42:54.602Z,31.18
2023-04-14T15:45:27.057Z,31.96
2023-04-14T15:47:56.800Z,32.56
2023-04-14T15:50:26.666Z,33.23
2023-04-14T15:52:58.036Z,33.69
2023-04-14T15:55:28.828Z,33.46
2023-04-14T15:57:58.744Z,32.89
2023-04-14T16:00:28.640Z,33.78
2023-04-14T16:02:58.540Z,33.92
2023-04-14T16:05:28.563Z,34.65
2023-04-14T16:07:58.377Z,34.33
2023-04-14T16:10:29.252Z,34.28
2023-04-14T16:12:59.118Z,33.81
2023-04-14T16:15:28.997Z,33.90
2023-04-14T16:17:58.855Z,34.38
2023-04-14T16:20:28.509Z,34.38
2023-04-14T16:22:58.667Z,33.65
2023-04-14T16:25:28.898Z,33.65
2023-04-14T16:27:58.792Z,33.90
2023-04-14T16:30:28.597Z,34.08
2023-04-14T16:32:58.538Z,34.67
2023-04-14T16:35:28.630Z,35.21
2023-04-14T16:37:59.348Z,35.58
2023-04-14T16:40:29.319Z,34.94
2023-04-14T16:42:59.201Z,35.30
2023-04-14T16:45:30.649Z,35.27
2023-04-14T16:48:00.472Z,34.22
2023-04-14T16:50:31.713Z,34.00
2023-04-14T16:53:01.651Z,33.89
2023-04-14T16:55:33.850Z,32.96
2023-04-14T16:58:03.829Z,31.97
2023-04-14T17:00:33.476Z,30.86
2023-04-14T17:03:03.446Z,31.34
2023-04-14T17:05:33.784Z,30.74
2023-04-14T17:08:05.020Z,31.35
2023-04-14T17:10:34.511Z,30.38
2023-04-14T17:13:04.695Z,30.75
2023-04-14T17:15:34.608Z,30.75
2023-04-14T17:18:05.304Z,30.97
2023-04-14T17:20:34.994Z,31.46
2023-04-14T17:23:05.007Z,32.90
2023-04-14T17:25:37.402Z,32.98
2023-04-14T17:28:07.125Z,32.88
2023-04-14T17:30:38.417Z,33.45
2023-04-14T17:33:09.504Z,34.27
2023-04-14T17:35:39.382Z,33.57
2023-04-14T17:38:11.315Z,33.51
2023-04-14T17:40:41.189Z,33.15
2023-04-14T17:43:11.501Z,33.20
2023-04-14T17:45:43.012Z,32.86
2023-04-14T17:48:12.690Z,32.99
2023-04-14T17:50:42.559Z,33.35
2023-04-14T17:53:14.793Z,34.14
2023-04-14T17:55:44.903Z,35.54
2023-04-14T17:58:15.582Z,36.26
2023-04-14T18:00:45.564Z,36.66
2023-04-14T18:03:16.382Z,37.12
2023-04-14T18:05:46.361Z,37.58
2023-04-14T18:08:16.047Z,37.99
2023-04-14T18:10:46.044Z,37.65
2023-04-14T18:13:15.905Z,38.15
2023-04-14T18:15:45.622Z,37.58
2023-04-14T18:18:16.670Z,38.01
2023-04-14T18:20:46.946Z,38.51
2023-04-14T18:23:17.464Z,38.56
2023-04-14T18:28:18.820Z,38.19
2023-04-14T18:30:54.319Z,39.04
2023-04-14T18:33:23.983Z,39.02
2023-04-14T18:35:55.257Z,39.50
2023-04-14T18:38:26.002Z,39.48
2023-04-14T18:40:57.347Z,40.04
2023-04-14T18:43:27.224Z,40.60
2023-04-14T18:45:57.245Z,40.74
2023-04-14T18:48:27.823Z,41.09
2023-04-14T18:51:03.728Z,41.06
2023-04-14T18:53:33.297Z,41.40
2023-04-14T18:56:03.198Z,41.51
2023-04-14T18:58:33.371Z,40.95
2023-04-14T19:01:03.822Z,41.19
2023-04-14T19:03:33.798Z,40.59
2023-04-14T19:06:03.882Z,40.47
2023-04-14T19:08:33.679Z,40.59
2023-04-14T19:11:03.496Z,40.12
2023-04-14T19:13:33.316Z,40.67
2023-04-14T19:16:08.842Z,40.44
2023-04-14T19:18:39.644Z,40.55
2023-04-14T19:21:10.405Z,40.38
2023-04-14T19:23:40.894Z,40.41
2023-04-14T19:26:13.477Z,40.49
2023-04-14T19:28:43.079Z,40.75
2023-04-14T19:31:13.690Z,40.57
2023-04-14T19:33:43.589Z,41.15
2023-04-14T19:36:17.175Z,41.15
2023-04-14T19:38:47.160Z,40.98
2023-04-14T19:41:16.944Z,41.31
2023-04-14T19:43:46.848Z,41.96
2023-04-14T19:46:16.730Z,42.07
2023-04-14T19:48:46.754Z,42.65
2023-04-14T19:51:16.675Z,42.44
2023-04-14T19:53:47.997Z,43.12
2023-04-14T19:56:17.628Z,43.12
2023-04-14T19:58:47.437Z,43.83
2023-04-14T20:01:16.978Z,43.75
2023-04-14T20:04:06.917Z,43.76
2023-04-14T20:06:19.440Z,43.84
2023-04-14T20:08:49.519Z,43.86
2023-04-14T20:11:20.317Z,44.51
2023-04-14T20:13:50.171Z,44.42
2023-04-14T20:16:20.332Z,44.69
2023-04-14T20:18:50.587Z,44.89
2023-04-14T20:21:20.412Z,44.87
2023-04-14T20:23:50.348Z,45.05
2023-04-14T20:26:20.514Z,44.45
2023-04-14T20:28:50.366Z,45.36
2023-04-14T20:31:22.405Z,45.67
2023-04-14T20:33:51.957Z,46.45
2023-04-14T20:36:22.173Z,46.90
2023-04-14T20:38:51.683Z,46.18
2023-04-14T20:41:21.582Z,46.52
2023-04-14T20:43:51.356Z,46.93
2023-04-14T20:46:22.004Z,46.83
2023-04-14T20:48:52.217Z,46.80
2023-04-14T20:51:22.675Z,47.12
2023-04-14T20:53:52.556Z,47.66
2023-04-14T20:56:22.566Z,47.66
2023-04-14T20:58:52.421Z,47.91
2023-04-14T21:01:23.861Z,48.02
2023-04-14T21:03:54.454Z,48.14
2023-04-14T21:06:25.104Z,48.96
2023-04-14T21:08:54.921Z,48.26
2023-04-14T21:11:24.750Z,48.42
2023-04-14T21:15:44.488Z,48.72
2023-04-14T21:16:26.230Z,48.93
2023-04-14T21:18:56.644Z,49.64
2023-04-14T21:21:27.112Z,49.66
2023-04-14T21:23:56.962Z,50.15
2023-04-14T21:26:28.396Z,50.15
2023-04-14T21:28:58.484Z,50.09
2023-04-14T21:31:28.776Z,50.61
2023-04-14T21:33:58.656Z,50.53
2023-04-14T21:36:28.843Z,50.40
2023-04-14T21:38:58.816Z,51.10
2023-04-14T21:41:28.599Z,49.86
2023-04-14T21:43:58.560Z,50.58
2023-04-14T21:46:28.608Z,50.69
2023-04-14T21:48:58.414Z,50.83
2023-04-14T21:51:28.418Z,50.86
2023-04-14T21:53:58.544Z,52.13
2023-04-14T21:56:28.070Z,51.16
2023-04-14T21:58:57.942Z,51.35
2023-04-14T22:01:28.181Z,51.03
2023-04-14T22:03:58.522Z,51.85
2023-04-14T22:06:28.618Z,52.79
2023-04-14T22:08:58.420Z,52.48
2023-04-14T22:11:30.079Z,52.70
2023-04-14T22:14:01.816Z,52.78
2023-04-14T22:16:31.665Z,52.86
2023-04-14T22:19:02.364Z,52.66
2023-04-14T22:21:32.507Z,53.22
2023-04-14T22:24:02.659Z,53.53
2023-04-14T22:26:32.844Z,53.27
2023-04-14T22:29:02.930Z,53.44
2023-04-14T22:31:32.937Z,53.86
2023-04-14T22:34:02.804Z,54.84
2023-04-14T22:36:32.863Z,54.51
2023-04-14T22:39:02.991Z,54.87
2023-04-14T22:41:33.414Z,55.78
2023-04-14T22:44:05.179Z,55.70
2023-04-14T22:46:35.528Z,55.95
2023-04-14T22:49:05.416Z,56.91
2023-04-14T22:51:35.305Z,56.30
2023-04-14T22:54:06.622Z,56.59
2023-04-14T22:56:37.200Z,56.33
2023-04-14T22:59:07.020Z,56.36
2023-04-14T23:01:37.335Z,55.30
2023-04-14T23:04:08.641Z,55.30
2023-04-14T23:06:38.757Z,55.87
2023-04-14T23:09:08.569Z,55.80
2023-04-14T23:11:39.013Z,55.43
2023-04-14T23:14:09.875Z,55.36
2023-04-14T23:16:39.693Z,55.55
2023-04-14T23:19:09.690Z,55.51
2023-04-14T23:21:39.698Z,55.94
2023-04-14T23:24:10.043Z,55.71
2023-04-14T23:26:39.883Z,55.94
2023-04-14T23:29:09.736Z,55.75
2023-04-14T23:31:39.602Z,55.74
2023-04-14T23:34:10.990Z,55.62
2023-04-14T23:36:41.586Z,55.21
2023-04-14T23:39:11.659Z,55.41
2023-04-14T23:41:41.788Z,55.10
2023-04-14T23:44:13.303Z,55.57
2023-04-14T23:46:43.187Z,55.21
2023-04-14T23:49:24.638Z,55.55
2023-04-14T23:51:44.543Z,55.24
2023-04-14T23:54:14.335Z,55.21
2023-04-14T23:56:44.163Z,55.48
2023-04-14T23:59:13.970Z,55.12
